createdAt,value
2023-04-13T00:01:32.776Z,99492.53
2023-04-13T00:04:03.359Z,99491.31
2023-04-13T00:06:30.451Z,99488.53
2023-04-13T00:08:58.680Z,99477.25
2023-04-13T00:11:27.703Z,99485.78
2023-04-13T00:13:55.184Z,99486.50
2023-04-13T00:16:22.311Z,99481.63
2023-04-13T00:18:50.403Z,99481.63
2023-04-13T00:21:16.957Z,99475.06
2023-04-13T00:23:44.621Z,99480.84
2023-04-13T00:26:10.962Z,99477.81
2023-04-13T00:28:37.351Z,99483.03
2023-04-13T00:31:03.905Z,99478.91
2023-04-13T00:33:30.361Z,99481.53
2023-04-13T00:35:56.791Z,99476.41
2023-04-13T00:38:24.087Z,99473.25
2023-04-13T00:40:50.475Z,99476.03
2023-04-13T00:43:16.898Z,99477.00
2023-04-13T00:45:43.417Z,99478.63
2023-04-13T00:48:10.814Z,99463.75
2023-04-13T00:50:37.886Z,99466.38
2023-04-13T00:53:06.343Z,99462.13
2023-04-13T00:55:38.502Z,99467.34
2023-04-13T00:58:05.990Z,99465.41
2023-04-13T01:00:32.379Z,99469.81
2023-04-13T01:03:01.703Z,99464.31
2023-04-13T01:05:36.492Z,99470.25
2023-04-13T01:08:25.668Z,99464.03
2023-04-13T01:11:09.405Z,99460.44
2023-04-13T01:13:45.144Z,99449.97
2023-04-13T01:16:19.783Z,99459.22
2023-04-13T01:18:50.288Z,99459.22
2023-04-13T01:21:20.385Z,99446.13
2023-04-13T01:23:51.273Z,99461.69
2023-04-13T01:26:17.973Z,99441.44
2023-04-13T01:28:47.152Z,99457.69
2023-04-13T01:31:13.849Z,99450.53
2023-04-13T01:33:41.519Z,99447.75
2023-04-13T01:36:10.690Z,99450.94
2023-04-13T01:38:37.789Z,99454.22
2023-04-13T01:41:04.523Z,99454.91
2023-04-13T01:43:31.107Z,99459.16
2023-04-13T01:46:04.760Z,99452.84
2023-04-13T01:48:50.431Z,99471.03
2023-04-13T01:51:24.280Z,99470.88
2023-04-13T01:54:11.628Z,99471.69
2023-04-13T01:56:39.646Z,99484.53
2023-04-13T01:59:07.015Z,99497.63
2023-04-13T02:01:33.391Z,99493.22
2023-04-13T02:04:01.511Z,99502.44
2023-04-13T02:06:28.373Z,99501.75
2023-04-13T02:08:54.720Z,99506.19
2023-04-13T02:11:22.041Z,99505.34
2023-04-13T02:13:48.453Z,99504.38
2023-04-13T02:16:15.817Z,99504.53
2023-04-13T02:18:42.270Z,99507.41
2023-04-13T02:21:12.046Z,99513.06
2023-04-13T02:23:40.759Z,99521.59
2023-04-13T02:26:12.946Z,99524.34
2023-04-13T02:28:40.308Z,99529.59
2023-04-13T02:31:07.257Z,99523.38
2023-04-13T02:33:36.276Z,99531.53
2023-04-13T02:36:03.946Z,99540.59
2023-04-13T02:38:31.887Z,99553.69
2023-04-13T02:40:59.492Z,99549.69
2023-04-13T02:43:29.001Z,99559.22
2023-04-13T02:45:56.644Z,99570.22
2023-04-13T02:48:23.499Z,99564.59
2023-04-13T02:50:49.930Z,99569.81
2023-04-13T02:53:16.868Z,99575.59
2023-04-13T02:55:43.291Z,99578.06
2023-04-13T02:58:12.036Z,99583.69
2023-04-13T03:00:38.697Z,99587.72
2023-04-13T03:03:07.034Z,99593.47
2023-04-13T03:05:33.615Z,99601.72
2023-04-13T03:08:00.098Z,99603.09
2023-04-13T03:10:26.506Z,99608.69
2023-04-13T03:12:53.559Z,99608.56
2023-04-13T03:15:19.945Z,99620.94
2023-04-13T03:17:46.362Z,99618.72
2023-04-13T03:20:13.346Z,99617.63
2023-04-13T03:22:40.115Z,99621.09
2023-04-13T03:25:08.306Z,99623.56
2023-04-13T03:27:35.964Z,99631.66
2023-04-13T03:30:03.744Z,99640.72
2023-04-13T03:32:31.772Z,99627.09
2023-04-13T03:34:58.776Z,99640.97
2023-04-13T03:37:29.780Z,99644.00
2023-04-13T03:39:56.270Z,99642.47
2023-04-13T03:42:22.611Z,99647.69
2023-04-13T03:44:49.000Z,99649.78
2023-04-13T03:47:15.632Z,99658.06
2023-04-13T03:49:42.024Z,99660.84
2023-04-13T03:52:08.339Z,99663.81
2023-04-13T03:54:34.790Z,99663.13
2023-04-13T03:57:02.233Z,99665.75
2023-04-13T03:59:28.576Z,99670.72
2023-04-13T04:01:54.957Z,99675.69
2023-04-13T04:04:21.561Z,99675.19
2023-04-13T04:06:48.054Z,99674.06
2023-04-13T04:09:14.411Z,99674.63
2023-04-13T04:11:40.981Z,99683.72
2023-04-13T04:14:07.316Z,99685.88
2023-04-13T04:16:33.733Z,99693.28
2023-04-13T04:19:00.122Z,99693.78
2023-04-13T04:21:34.340Z,99696.22
2023-04-13T04:24:02.016Z,99701.75
2023-04-13T04:26:30.060Z,99705.31
2023-04-13T04:29:02.065Z,99719.31
2023-04-13T04:31:36.688Z,99713.53
2023-04-13T04:34:04.031Z,99707.19
2023-04-13T04:36:30.408Z,99720.41
2023-04-13T04:39:02.116Z,99716.13
2023-04-13T04:41:28.976Z,99719.81
2023-04-13T04:43:56.871Z,99728.06
2023-04-13T04:46:25.917Z,99732.47
2023-04-13T04:48:54.110Z,99728.63
2023-04-13T04:51:24.758Z,99742.75
2023-04-13T04:53:52.855Z,99752.94
2023-04-13T04:56:19.300Z,99749.66
2023-04-13T04:58:46.217Z,99740.34
2023-04-13T05:01:12.754Z,99745.78
2023-04-13T05:03:39.286Z,99748.41
2023-04-13T05:06:06.190Z,99757.91
2023-04-13T05:08:33.056Z,99748.66
2023-04-13T05:10:59.443Z,99749.59
2023-04-13T05:13:25.835Z,99753.06
2023-04-13T05:15:52.202Z,99759.09
2023-04-13T05:18:18.652Z,99765.75
2023-04-13T05:20:45.291Z,99762.19
2023-04-13T05:23:12.440Z,99766.63
2023-04-13T05:25:39.565Z,99775.53
2023-04-13T05:28:06.006Z,99785.13
2023-04-13T05:30:32.950Z,99784.97
2023-04-13T05:33:02.054Z,99785.13
2023-04-13T05:35:28.528Z,99793.66
2023-04-13T05:37:57.009Z,99798.34
2023-04-13T05:40:23.624Z,99802.88
2023-04-13T05:42:49.959Z,99806.31
2023-04-13T05:45:16.992Z,99796.38
2023-04-13T05:47:45.336Z,99805.59
2023-04-13T05:50:12.742Z,99812.88
2023-04-13T05:52:39.053Z,99822.78
2023-04-13T05:55:06.668Z,99825.28
2023-04-13T05:57:33.322Z,99822.25
2023-04-13T05:59:59.751Z,99840.06
2023-04-13T06:02:26.415Z,99840.19
2023-04-13T06:04:54.959Z,99838.53
2023-04-13T06:07:22.321Z,99850.66
2023-04-13T06:09:48.775Z,99856.22
2023-04-13T06:12:15.844Z,99855.38
2023-04-13T06:14:42.956Z,99853.03
2023-04-13T06:17:09.409Z,99850.97
2023-04-13T06:19:35.874Z,99848.28
2023-04-13T06:22:02.357Z,99843.38
2023-04-13T06:24:28.701Z,99850.84
2023-04-13T06:26:55.089Z,99856.94
2023-04-13T06:29:21.545Z,99853.75
2023-04-13T06:31:47.920Z,99855.13
2023-04-13T06:34:14.634Z,99855.41
2023-04-13T06:36:41.051Z,99862.34
2023-04-13T06:39:09.251Z,99873.53
2023-04-13T06:41:37.853Z,99867.84
2023-04-13T06:44:04.651Z,99881.75
2023-04-13T06:46:31.168Z,99880.78
2023-04-13T06:48:58.033Z,99889.53
2023-04-13T06:51:24.504Z,99891.53
2023-04-13T06:53:52.413Z,99898.72
2023-04-13T06:56:18.809Z,99896.06
2023-04-13T06:58:45.466Z,99895.50
2023-04-13T07:01:12.427Z,99899.44
2023-04-13T07:03:39.322Z,99900.31
2023-04-13T07:06:07.378Z,99907.75
2023-04-13T07:08:34.428Z,99900.63
2023-04-13T07:11:02.373Z,99909.09
2023-04-13T07:13:28.782Z,99928.31
2023-04-13T07:15:55.199Z,99934.38
2023-04-13T07:18:21.551Z,99934.59
2023-04-13T07:20:47.844Z,99937.47
2023-04-13T07:23:14.223Z,99934.31
2023-04-13T07:25:40.913Z,99935.13
2023-04-13T07:28:07.327Z,99942.13
2023-04-13T07:30:33.724Z,99937.66
2023-04-13T07:33:00.246Z,99953.88
2023-04-13T07:35:26.976Z,99968.09
2023-04-13T07:37:53.676Z,99965.28
2023-04-13T07:40:20.241Z,99977.94
2023-04-13T07:42:49.887Z,99977.94
2023-04-13T07:45:17.954Z,99980.97
2023-04-13T07:47:44.324Z,99983.38
2023-04-13T07:50:10.822Z,99988.50
2023-04-13T07:52:37.296Z,99988.00
2023-04-13T07:55:03.898Z,99992.09
2023-04-13T07:57:30.277Z,99989.81
2023-04-13T07:59:56.661Z,99993.13
2023-04-13T08:02:23.447Z,99998.91
2023-04-13T08:04:49.921Z,99998.69
2023-04-13T08:07:16.409Z,99998.03
2023-04-13T08:09:43.176Z,99988.31
2023-04-13T08:12:09.615Z,99992.97
2023-04-13T08:14:36.717Z,99994.06
2023-04-13T08:17:06.973Z,99995.97
2023-04-13T08:19:33.819Z,100005.34
2023-04-13T08:22:00.148Z,100012.53
2023-04-13T08:24:27.409Z,100017.78
2023-04-13T08:26:55.048Z,100027.47
2023-04-13T08:29:24.010Z,100033.13
2023-04-13T08:31:51.427Z,100025.13
2023-04-13T08:34:18.484Z,100030.00
2023-04-13T08:36:48.312Z,100033.84
2023-04-13T08:39:14.887Z,100050.75
2023-04-13T08:41:47.035Z,100053.97
2023-04-13T08:44:14.720Z,100064.91
2023-04-13T08:46:44.534Z,100071.69
2023-04-13T08:49:11.690Z,100054.69
2023-04-13T08:51:39.257Z,100078.25
2023-04-13T08:54:06.966Z,100086.31
2023-04-13T08:56:45.350Z,100098.00
2023-04-13T08:59:16.166Z,100097.69
2023-04-13T09:01:45.428Z,100107.38
2023-04-13T09:04:14.005Z,100100.50
2023-04-13T09:06:42.928Z,100113.75
2023-04-13T09:09:13.390Z,100120.03
2023-04-13T09:11:41.128Z,100102.56
2023-04-13T09:14:08.868Z,100112.38
2023-04-13T09:16:39.851Z,100102.19
2023-04-13T09:19:06.520Z,100120.50
2023-04-13T09:21:40.930Z,100108.34
2023-04-13T09:24:07.958Z,100128.22
2023-04-13T09:26:45.408Z,100141.47
2023-04-13T09:29:17.316Z,100142.34
2023-04-13T09:31:45.983Z,100150.72
2023-04-13T09:34:13.196Z,100151.09
2023-04-13T09:36:52.967Z,100153.88
2023-04-13T09:39:30.853Z,100161.50
2023-04-13T09:41:58.567Z,100171.31
2023-04-13T09:44:27.412Z,100174.38
2023-04-13T09:46:57.833Z,100177.97
2023-04-13T09:49:25.493Z,100179.25
2023-04-13T09:51:54.370Z,100179.84
2023-04-13T09:54:22.065Z,100178.25
2023-04-13T09:56:54.445Z,100207.25
2023-04-13T09:59:25.509Z,100205.78
2023-04-13T10:01:52.355Z,100212.59
2023-04-13T10:04:19.289Z,100216.47
2023-04-13T10:06:46.939Z,100220.28
2023-04-13T10:09:15.049Z,100230.50
2023-04-13T10:11:51.536Z,100224.50
2023-04-13T10:14:28.493Z,100237.50
2023-04-13T10:17:20.582Z,100240.44
2023-04-13T10:19:49.836Z,100236.16
2023-04-13T10:22:17.528Z,100244.00
2023-04-13T10:24:44.225Z,100251.13
2023-04-13T10:27:19.486Z,100246.34
2023-04-13T10:29:47.284Z,100259.50
2023-04-13T10:32:40.102Z,100264.72
2023-04-13T10:35:13.476Z,100269.09
2023-04-13T10:37:42.963Z,100284.81
2023-04-13T10:40:14.359Z,100288.63
2023-04-13T10:42:52.248Z,100290.19
2023-04-13T10:45:24.174Z,100293.81
2023-04-13T10:47:50.937Z,100307.81
2023-04-13T10:50:22.592Z,100296.28
2023-04-13T10:53:04.984Z,100299.25
2023-04-13T10:55:32.780Z,100292.72
2023-04-13T10:58:01.189Z,100292.31
2023-04-13T11:00:44.757Z,100291.91
2023-04-13T11:03:15.375Z,100308.91
2023-04-13T11:05:43.136Z,100304.38
2023-04-13T11:08:10.057Z,100302.97
2023-04-13T11:10:36.455Z,100308.59
2023-04-13T11:13:02.889Z,100317.19
2023-04-13T11:15:32.391Z,100321.53
2023-04-13T11:18:00.947Z,100335.50
2023-04-13T11:20:35.864Z,100350.19
2023-04-13T11:23:06.260Z,100344.69
2023-04-13T11:25:36.206Z,100352.78
2023-04-13T11:28:04.136Z,100360.66
2023-04-13T11:30:32.396Z,100368.41
2023-04-13T11:33:00.889Z,100376.38
2023-04-13T11:35:27.400Z,100365.44
2023-04-13T11:37:55.933Z,100366.09
2023-04-13T11:40:27.189Z,100361.22
2023-04-13T11:42:55.894Z,100379.59
2023-04-13T11:45:26.679Z,100389.47
2023-04-13T11:47:54.120Z,100374.28
2023-04-13T11:50:22.358Z,100379.06
2023-04-13T11:52:57.083Z,100378.16
2023-04-13T11:55:24.977Z,100384.13
2023-04-13T11:57:52.879Z,100379.38
2023-04-13T12:00:27.349Z,100383.94
2023-04-13T12:05:27.157Z,100387.72
2023-04-13T12:07:55.973Z,100384.31
2023-04-13T12:10:25.488Z,100387.38
2023-04-13T12:13:17.136Z,100388.59
2023-04-13T12:16:05.139Z,100384.78
2023-04-13T12:18:57.354Z,100405.13
2023-04-13T12:21:26.240Z,100386.00
2023-04-13T12:23:58.677Z,100408.44
2023-04-13T12:27:16.497Z,100400.47
2023-04-13T12:29:22.159Z,100416.06
2023-04-13T12:31:48.591Z,100425.06
2023-04-13T12:34:14.985Z,100415.53
2023-04-13T12:36:41.535Z,100442.88
2023-04-13T12:39:08.092Z,100436.34
2023-04-13T12:41:34.483Z,100435.91
2023-04-13T12:44:01.254Z,100430.59
2023-04-13T12:46:27.858Z,100439.38
2023-04-13T12:48:54.901Z,100448.03
2023-04-13T12:51:21.330Z,100446.09
2023-04-13T12:53:47.872Z,100463.09
2023-04-13T12:56:14.270Z,100463.78
2023-04-13T12:58:40.670Z,100458.88
2023-04-13T13:01:07.202Z,100447.63
2023-04-13T13:03:33.872Z,100465.34
2023-04-13T13:06:00.760Z,100474.59
2023-04-13T13:08:27.390Z,100469.53
2023-04-13T13:10:53.931Z,100476.25
2023-04-13T13:13:20.527Z,100481.56
2023-04-13T13:15:47.061Z,100477.59
2023-04-13T13:18:13.780Z,100481.44
2023-04-13T13:20:43.031Z,100480.81
2023-04-13T13:23:10.900Z,100500.53
2023-04-13T13:25:39.033Z,100504.16
2023-04-13T13:28:14.885Z,100505.19
2023-04-13T13:30:42.297Z,100509.44
2023-04-13T13:33:08.806Z,100505.59
2023-04-13T13:35:35.201Z,100510.28
2023-04-13T13:38:02.134Z,100512.56
2023-04-13T13:40:28.762Z,100514.53
2023-04-13T13:42:55.100Z,100511.38
2023-04-13T13:45:21.770Z,100510.53
2023-04-13T13:47:53.364Z,100521.22
2023-04-13T13:50:21.798Z,100522.66
2023-04-13T13:53:02.316Z,100530.44
2023-04-13T13:55:30.824Z,100531.13
2023-04-13T13:57:57.288Z,100532.03
2023-04-13T14:00:23.927Z,100540.28
2023-04-13T14:02:50.522Z,100533.75
2023-04-13T14:05:17.659Z,100532.94
2023-04-13T14:07:45.200Z,100537.31
2023-04-13T14:10:12.873Z,100541.19
2023-04-13T14:12:41.305Z,100541.66
2023-04-13T14:15:09.007Z,100538.13
2023-04-13T14:17:36.856Z,100544.25
2023-04-13T14:20:12.846Z,100545.56
2023-04-13T14:22:41.191Z,100551.69
2023-04-13T14:25:12.014Z,100548.72
2023-04-13T14:27:38.540Z,100558.78
2023-04-13T14:30:05.773Z,100558.16
2023-04-13T14:32:32.280Z,100557.75
2023-04-13T14:35:00.162Z,100573.34
2023-04-13T14:37:29.479Z,100557.44
2023-04-13T14:39:55.938Z,100562.31
2023-04-13T14:42:24.473Z,100554.63
2023-04-13T14:44:54.256Z,100562.09
2023-04-13T14:47:20.727Z,100561.34
2023-04-13T14:49:47.682Z,100576.66
2023-04-13T14:52:14.499Z,100576.94
2023-04-13T14:54:41.844Z,100581.75
2023-04-13T14:57:09.697Z,100587.63
2023-04-13T14:59:36.207Z,100585.19
2023-04-13T15:02:02.742Z,100581.75
2023-04-13T15:04:29.712Z,100587.19
2023-04-13T15:06:56.358Z,100585.41
2023-04-13T15:09:22.728Z,100595.38
2023-04-13T15:11:49.254Z,100599.34
2023-04-13T15:14:15.630Z,100592.34
2023-04-13T15:16:42.034Z,100596.72
2023-04-13T15:19:08.472Z,100599.44
2023-04-13T15:21:36.229Z,100604.91
2023-04-13T15:24:02.651Z,100601.06
2023-04-13T15:26:29.749Z,100603.63
2023-04-13T15:28:56.157Z,100618.00
2023-04-13T15:31:22.550Z,100619.84
2023-04-13T15:33:48.945Z,100620.31
2023-04-13T15:36:16.095Z,100623.72
2023-04-13T15:38:43.055Z,100619.44
2023-04-13T15:41:11.029Z,100622.94
2023-04-13T15:43:38.165Z,100624.09
2023-04-13T15:46:04.662Z,100631.41
2023-04-13T15:48:31.337Z,100625.63
2023-04-13T15:51:01.627Z,100626.44
2023-04-13T15:53:28.175Z,100627.94
2023-04-13T15:55:54.912Z,100633.00
2023-04-13T15:58:21.695Z,100636.06
2023-04-13T16:00:57.574Z,100631.03
2023-04-13T16:03:24.285Z,100639.03
2023-04-13T16:05:50.967Z,100631.84
2023-04-13T16:08:19.028Z,100634.72
2023-04-13T16:10:45.559Z,100637.44
2023-04-13T16:13:18.752Z,100629.00
2023-04-13T16:15:52.652Z,100643.88
2023-04-13T16:18:28.783Z,100638.59
2023-04-13T16:20:58.885Z,100640.50
2023-04-13T16:23:25.871Z,100634.00
2023-04-13T16:25:52.168Z,100644.22
2023-04-13T16:28:19.737Z,100653.66
2023-04-13T16:30:47.078Z,100652.81
2023-04-13T16:33:14.021Z,100653.66
2023-04-13T16:35:41.160Z,100659.75
2023-04-13T16:38:07.535Z,100660.34
2023-04-13T16:40:34.024Z,100669.25
2023-04-13T16:43:02.841Z,100670.66
2023-04-13T16:45:29.217Z,100667.03
2023-04-13T16:47:55.663Z,100671.34
2023-04-13T16:50:22.041Z,100673.47
2023-04-13T16:52:48.377Z,100670.41
2023-04-13T16:55:15.009Z,100681.28
2023-04-13T16:57:43.211Z,100668.06
2023-04-13T17:00:10.905Z,100677.94
2023-04-13T17:02:39.611Z,100674.59
2023-04-13T17:05:10.773Z,100696.31
2023-04-13T17:07:41.468Z,100691.31
2023-04-13T17:10:08.775Z,100690.63
2023-04-13T17:12:36.309Z,100696.88
2023-04-13T17:15:02.756Z,100687.44
2023-04-13T17:17:29.263Z,100695.63
2023-04-13T17:19:55.690Z,100701.91
2023-04-13T17:22:22.642Z,100703.28
2023-04-13T17:24:49.467Z,100693.03
2023-04-13T17:27:15.998Z,100702.50
2023-04-13T17:29:42.396Z,100704.72
2023-04-13T17:32:08.890Z,100704.03
2023-04-13T17:34:35.310Z,100710.56
2023-04-13T17:37:02.107Z,100711.94
2023-04-13T17:39:29.133Z,100723.63
2023-04-13T17:41:56.210Z,100728.63
2023-04-13T17:44:22.608Z,100734.59
2023-04-13T17:46:50.171Z,100740.56
2023-04-13T17:49:16.613Z,100738.84
2023-04-13T17:51:49.416Z,100744.69
2023-04-13T17:54:16.001Z,100750.50
2023-04-13T17:56:42.325Z,100748.25
2023-04-13T17:59:13.099Z,100765.72
2023-04-13T18:01:41.526Z,100759.34
2023-04-13T18:04:10.345Z,100760.41
2023-04-13T18:06:36.864Z,100756.91
2023-04-13T18:09:03.728Z,100758.28
2023-04-13T18:11:30.219Z,100762.53
2023-04-13T18:13:56.726Z,100770.25
2023-04-13T18:16:23.111Z,100770.09
2023-04-13T18:18:50.597Z,100774.59
2023-04-13T18:21:19.366Z,100777.84
2023-04-13T18:23:46.789Z,100787.13
2023-04-13T18:26:13.134Z,100784.63
2023-04-13T18:28:40.990Z,100782.88
2023-04-13T18:31:09.186Z,100793.25
2023-04-13T18:33:35.835Z,100790.63
2023-04-13T18:36:02.418Z,100799.88
2023-04-13T18:38:28.794Z,100793.59
2023-04-13T18:40:55.222Z,100803.88
2023-04-13T18:43:22.894Z,100789.56
2023-04-13T18:45:49.257Z,100811.91
2023-04-13T18:48:15.684Z,100805.09
2023-04-13T18:50:42.015Z,100821.03
2023-04-13T18:53:08.404Z,100822.91
2023-04-13T18:55:34.981Z,100823.13
2023-04-13T18:58:01.358Z,100842.38
2023-04-13T19:00:27.745Z,100838.06
2023-04-13T19:02:54.364Z,100844.28
2023-04-13T19:05:20.895Z,100846.88
2023-04-13T19:07:58.718Z,100861.81
2023-04-13T19:10:28.408Z,100854.00
2023-04-13T19:12:56.013Z,100860.09
2023-04-13T19:15:23.036Z,100864.09
2023-04-13T19:17:52.904Z,100864.91
2023-04-13T19:20:23.740Z,100861.69
2023-04-13T19:22:51.205Z,100865.63
2023-04-13T19:25:17.535Z,100869.84
2023-04-13T19:27:45.527Z,100876.03
2023-04-13T19:30:13.598Z,100892.47
2023-04-13T19:32:42.683Z,100900.00
2023-04-13T19:35:10.544Z,100893.63
2023-04-13T19:37:38.385Z,100894.75
2023-04-13T19:40:09.460Z,100899.47
2023-04-13T19:42:36.640Z,100898.63
2023-04-13T19:45:03.803Z,100914.44
2023-04-13T19:47:30.288Z,100915.38
2023-04-13T19:49:57.184Z,100922.38
2023-04-13T19:52:24.922Z,100925.50
2023-04-13T19:54:51.320Z,100928.13
2023-04-13T19:57:18.173Z,100929.84
2023-04-13T19:59:44.542Z,100937.72
2023-04-13T20:02:11.200Z,100946.13
2023-04-13T20:04:37.777Z,100936.28
2023-04-13T20:07:04.181Z,100932.50
2023-04-13T20:09:30.788Z,100940.22
2023-04-13T20:11:57.221Z,100940.19
2023-04-13T20:14:23.656Z,100939.56
2023-04-13T20:16:51.121Z,100943.19
2023-04-13T20:19:17.545Z,100948.50
2023-04-13T20:21:44.483Z,100952.38
2023-04-13T20:24:10.787Z,100948.78
2023-04-13T20:26:37.152Z,100952.13
2023-04-13T20:29:05.067Z,100948.16
2023-04-13T20:31:33.125Z,100947.06
2023-04-13T20:33:59.869Z,100948.00
2023-04-13T20:36:26.950Z,100951.91
2023-04-13T20:38:54.251Z,100958.66
2023-04-13T20:41:21.910Z,100962.41
2023-04-13T20:43:50.613Z,100957.31
2023-04-13T20:46:16.995Z,100963.94
2023-04-13T20:51:14.234Z,100964.06
2023-04-13T20:53:40.649Z,100959.84
2023-04-13T20:56:07.523Z,100963.97
2023-04-13T20:58:33.884Z,100967.75
2023-04-13T21:01:01.345Z,100969.19
2023-04-13T21:03:30.682Z,100967.94
2023-04-13T21:05:58.519Z,100977.47
2023-04-13T21:08:25.709Z,100985.94
2023-04-13T21:10:52.111Z,100980.41
2023-04-13T21:13:18.828Z,100993.28
2023-04-13T21:15:45.301Z,100997.25
2023-04-13T21:18:11.756Z,100994.72
2023-04-13T21:20:40.571Z,100997.41
2023-04-13T21:23:06.877Z,100999.50
2023-04-13T21:25:33.217Z,100998.22
2023-04-13T21:27:59.536Z,100995.28
2023-04-13T21:30:25.893Z,101002.19
2023-04-13T21:32:52.283Z,101000.25
2023-04-13T21:35:19.102Z,101000.19
2023-04-13T21:37:45.492Z,100997.03
2023-04-13T21:40:11.966Z,100989.66
2023-04-13T21:42:40.805Z,100997.19
2023-04-13T21:45:07.761Z,100992.72
2023-04-13T21:47:34.101Z,101004.13
2023-04-13T21:50:00.423Z,101000.34
2023-04-13T21:52:28.727Z,100992.75
2023-04-13T21:54:55.385Z,100997.16
2023-04-13T21:57:21.879Z,100997.25
2023-04-13T21:59:48.271Z,100996.88
2023-04-13T22:02:14.651Z,100998.06
2023-04-13T22:04:41.109Z,100995.94
2023-04-13T22:07:07.456Z,100996.41
2023-04-13T22:09:33.865Z,101006.09
2023-04-13T22:12:00.810Z,101000.16
2023-04-13T22:14:27.186Z,101002.56
2023-04-13T22:16:53.988Z,101001.72
2023-04-13T22:19:20.404Z,101001.34
2023-04-13T22:21:46.833Z,100997.44
2023-04-13T22:24:13.538Z,101007.19
2023-04-13T22:26:39.871Z,101008.88
2023-04-13T22:29:07.001Z,101010.06
2023-04-13T22:31:33.454Z,101019.69
2023-04-13T22:33:59.859Z,101027.50
2023-04-13T22:36:26.988Z,101020.03
2023-04-13T22:38:54.702Z,101025.47
2023-04-13T22:41:21.138Z,101021.75
2023-04-13T22:43:47.534Z,101021.75
2023-04-13T22:46:13.956Z,101022.94
2023-04-13T22:48:40.519Z,101011.09
2023-04-13T22:51:06.934Z,101020.00
2023-04-13T22:53:33.281Z,101014.06
2023-04-13T22:56:00.534Z,101019.44
2023-04-13T22:58:27.235Z,101013.66
2023-04-13T23:00:53.604Z,101014.75
2023-04-13T23:03:20.201Z,101013.25
2023-04-13T23:05:46.812Z,101010.91
2023-04-13T23:08:13.242Z,101011.91
2023-04-13T23:10:39.662Z,101015.66
2023-04-13T23:13:06.100Z,101019.34
2023-04-13T23:15:32.641Z,101013.38
2023-04-13T23:18:01.492Z,101023.03
2023-04-13T23:20:28.236Z,101009.09
2023-04-13T23:22:54.627Z,101015.81
2023-04-13T23:25:20.998Z,101010.59
2023-04-13T23:27:47.396Z,101015.81
2023-04-13T23:30:13.898Z,101010.44
2023-04-13T23:32:40.384Z,101011.56
2023-04-13T23:35:07.427Z,101015.84
2023-04-13T23:37:33.937Z,101017.03
2023-04-13T23:40:00.699Z,101015.50
2023-04-13T23:42:28.038Z,101020.72
2023-04-13T23:44:54.417Z,101023.09
2023-04-13T23:47:21.151Z,101023.75
2023-04-13T23:49:47.805Z,101029.13
2023-04-13T23:52:14.182Z,101022.56
2023-04-13T23:54:40.718Z,101024.94
2023-04-13T23:57:07.110Z,101021.88
2023-04-13T23:59:33.522Z,101023.72
